createdAt,value
2017-11-15T00:01:18.213Z,33.47
2017-11-15T00:03:45.907Z,28.57
2017-11-15T00:06:13.526Z,27.80
2017-11-15T00:08:41.138Z,34.83
2017-11-15T00:11:08.732Z,31.00
2017-11-15T00:13:36.319Z,33.00
2017-11-15T00:16:03.941Z,28.20
2017-11-15T00:18:31.529Z,29.73
2017-11-15T00:20:59.177Z,31.93
2017-11-15T00:23:26.778Z,32.37
2017-11-15T00:25:54.363Z,36.50
2017-11-15T00:28:21.967Z,37.40
2017-11-15T00:30:49.577Z,37.40
2017-11-15T00:33:17.192Z,33.93
2017-11-15T00:35:44.789Z,38.63
2017-11-15T00:38:12.653Z,39.07
2017-11-15T00:40:40.307Z,33.07
2017-11-15T00:43:07.882Z,32.70
2017-11-15T00:45:35.514Z,35.87
2017-11-15T00:48:03.105Z,33.57
2017-11-15T00:50:30.704Z,35.23
2017-11-15T00:52:58.631Z,30.87
2017-11-15T00:55:26.221Z,36.57
2017-11-15T00:57:53.840Z,38.20
2017-11-15T01:00:21.449Z,35.07
2017-11-15T01:02:49.287Z,35.97
2017-11-15T01:05:16.955Z,44.97
2017-11-15T01:07:44.538Z,36.53
2017-11-15T01:10:12.157Z,34.80
2017-11-15T01:12:39.738Z,34.50
2017-11-15T01:15:07.332Z,31.23
2017-11-15T01:17:34.968Z,42.30
2017-11-15T01:20:02.567Z,35.57
2017-11-15T01:22:30.490Z,32.50
2017-11-15T01:24:58.066Z,37.07
2017-11-15T01:27:25.664Z,41.73
2017-11-15T01:29:53.279Z,33.90
2017-11-15T01:32:20.894Z,46.20
2017-11-15T01:34:48.522Z,33.70
2017-11-15T01:37:16.141Z,36.20
2017-11-15T01:39:43.758Z,40.60
2017-11-15T01:42:11.516Z,32.93
2017-11-15T01:44:39.109Z,36.87
2017-11-15T01:47:07.014Z,38.13
2017-11-15T01:49:34.604Z,44.90
2017-11-15T01:52:02.229Z,45.70
2017-11-15T01:54:29.836Z,34.43
2017-11-15T01:56:57.771Z,42.33
2017-11-15T01:59:25.394Z,36.97
2017-11-15T02:01:52.969Z,37.60
2017-11-15T02:04:20.551Z,44.10
2017-11-15T02:06:49.059Z,40.97
2017-11-15T02:09:16.907Z,38.53
2017-11-15T02:11:44.542Z,43.80
2017-11-15T02:14:12.435Z,42.10
2017-11-15T02:16:40.017Z,48.30
2017-11-15T02:19:07.979Z,47.03
2017-11-15T02:21:35.567Z,39.60
2017-11-15T02:24:03.501Z,45.20
2017-11-15T02:26:31.110Z,58.97
2017-11-15T02:28:58.701Z,45.30
2017-11-15T02:31:26.315Z,53.40
2017-11-15T02:33:53.913Z,61.90
2017-11-15T02:36:21.545Z,51.00
2017-11-15T02:38:49.170Z,46.70
2017-11-15T02:41:16.773Z,53.67
2017-11-15T02:43:44.380Z,53.80
2017-11-15T02:46:11.961Z,50.63
2017-11-15T02:48:39.594Z,47.30
2017-11-15T02:51:07.189Z,43.73
2017-11-15T02:53:35.049Z,45.43
2017-11-15T02:56:02.919Z,44.03
2017-11-15T02:58:30.788Z,49.83
2017-11-15T03:00:58.419Z,59.23
2017-11-15T03:03:26.316Z,50.00
2017-11-15T03:05:53.906Z,50.87
2017-11-15T03:08:21.750Z,45.37
2017-11-15T03:10:49.339Z,46.63
2017-11-15T03:13:17.226Z,52.47
2017-11-15T03:15:44.815Z,47.03
2017-11-15T03:18:12.401Z,59.23
2017-11-15T03:20:40.046Z,51.17
2017-11-15T03:23:07.661Z,46.53
2017-11-15T03:25:35.286Z,47.60
2017-11-15T03:28:02.913Z,59.63
2017-11-15T03:30:30.494Z,53.87
2017-11-15T03:32:58.142Z,43.20
2017-11-15T03:35:25.725Z,54.73
2017-11-15T03:37:53.344Z,42.50
2017-11-15T03:40:20.949Z,49.30
2017-11-15T03:42:48.554Z,48.40
2017-11-15T03:45:16.486Z,47.83
2017-11-15T03:47:44.080Z,42.17
2017-11-15T03:50:11.744Z,45.10
2017-11-15T03:52:39.354Z,38.53
2017-11-15T03:55:06.932Z,43.97
2017-11-15T03:57:35.461Z,43.83
2017-11-15T04:00:03.060Z,45.97
2017-11-15T04:02:30.677Z,56.30
2017-11-15T04:04:58.253Z,43.70
2017-11-15T04:07:25.836Z,39.13
2017-11-15T04:09:54.245Z,39.00
2017-11-15T04:12:21.834Z,38.53
2017-11-15T04:14:49.469Z,40.40
2017-11-15T04:17:17.056Z,40.20
2017-11-15T04:19:44.640Z,52.10
2017-11-15T04:22:12.268Z,45.10
2017-11-15T04:24:40.082Z,44.50
2017-11-15T04:27:07.709Z,38.33
2017-11-15T04:29:35.305Z,37.00
2017-11-15T04:32:02.901Z,41.03
2017-11-15T04:34:30.520Z,53.57
2017-11-15T04:36:58.429Z,36.30
2017-11-15T04:39:26.401Z,34.07
2017-11-15T04:41:54.003Z,42.10
2017-11-15T04:44:21.828Z,34.30
2017-11-15T04:46:49.443Z,56.10
2017-11-15T04:49:17.021Z,44.93
2017-11-15T04:51:44.670Z,46.57
2017-11-15T04:54:12.257Z,39.30
2017-11-15T04:56:39.850Z,50.73
2017-11-15T04:59:07.469Z,40.50
2017-11-15T05:01:35.062Z,60.53
2017-11-15T05:04:02.933Z,50.63
2017-11-15T05:06:30.518Z,41.00
2017-11-15T05:08:58.094Z,47.23
2017-11-15T05:11:25.743Z,41.53
2017-11-15T05:13:53.340Z,41.87
2017-11-15T05:16:20.987Z,48.17
2017-11-15T05:18:48.588Z,40.97
2017-11-15T05:21:16.476Z,42.13
2017-11-15T05:23:44.137Z,53.80
2017-11-15T05:26:11.804Z,36.83
2017-11-15T05:28:39.425Z,49.23
2017-11-15T05:31:07.022Z,39.43
2017-11-15T05:33:34.605Z,41.93
2017-11-15T05:36:02.216Z,43.53
2017-11-15T05:38:29.809Z,41.60
2017-11-15T05:40:57.444Z,37.93
2017-11-15T05:43:25.092Z,44.57
2017-11-15T05:45:52.675Z,34.10
2017-11-15T05:48:20.294Z,35.57
2017-11-15T05:50:47.882Z,61.33
2017-11-15T05:53:15.794Z,41.37
2017-11-15T05:55:43.418Z,45.97
2017-11-15T05:58:11.019Z,49.13
2017-11-15T06:00:38.612Z,46.97
2017-11-15T06:03:06.236Z,46.43
2017-11-15T06:05:33.825Z,42.17
2017-11-15T06:08:01.765Z,43.90
2017-11-15T06:10:29.340Z,44.57
2017-11-15T06:12:57.375Z,46.67
2017-11-15T06:15:24.987Z,41.57
2017-11-15T06:17:52.595Z,49.93
2017-11-15T06:20:20.550Z,45.23
2017-11-15T06:22:48.199Z,44.07
2017-11-15T06:25:15.973Z,48.80
2017-11-15T06:27:43.516Z,40.00
2017-11-15T06:30:11.103Z,45.13
2017-11-15T06:32:38.705Z,45.83
2017-11-15T06:35:06.568Z,42.07
2017-11-15T06:37:34.147Z,40.13
2017-11-15T06:40:01.754Z,36.33
2017-11-15T06:42:29.353Z,50.50
2017-11-15T06:44:56.999Z,44.77
2017-11-15T06:47:24.605Z,40.03
2017-11-15T06:49:52.198Z,41.73
2017-11-15T06:52:20.117Z,49.50
2017-11-15T06:54:47.705Z,58.67
2017-11-15T06:57:15.810Z,47.03
2017-11-15T06:59:43.726Z,51.47
2017-11-15T07:02:11.371Z,61.70
2017-11-15T07:04:38.987Z,56.70
2017-11-15T07:07:06.598Z,49.27
2017-11-15T07:09:34.273Z,50.40
2017-11-15T07:12:01.880Z,54.93
2017-11-15T07:14:29.461Z,54.53
2017-11-15T07:16:57.084Z,61.13
2017-11-15T07:19:24.683Z,56.90
2017-11-15T07:21:52.323Z,48.97
2017-11-15T07:24:19.947Z,52.23
2017-11-15T07:26:47.535Z,53.30
2017-11-15T07:29:15.153Z,47.57
2017-11-15T07:31:42.762Z,53.03
2017-11-15T07:34:10.391Z,45.17
2017-11-15T07:36:37.973Z,39.33
2017-11-15T07:39:05.684Z,44.73
2017-11-15T07:41:33.576Z,52.43
2017-11-15T07:44:01.158Z,49.73
2017-11-15T07:46:28.787Z,45.60
2017-11-15T07:48:56.379Z,55.97
2017-11-15T07:51:23.977Z,55.03
2017-11-15T07:53:51.606Z,45.93
2017-11-15T07:56:19.204Z,50.87
2017-11-15T07:58:46.893Z,53.77
2017-11-15T08:01:14.565Z,51.77
2017-11-15T08:03:42.163Z,50.60
2017-11-15T08:06:09.789Z,50.47
2017-11-15T08:08:37.386Z,57.90
2017-11-15T08:11:05.006Z,64.33
2017-11-15T08:13:32.634Z,60.13
2017-11-15T08:16:00.229Z,60.27
2017-11-15T08:18:28.139Z,59.33
2017-11-15T08:20:55.836Z,47.60
2017-11-15T08:23:23.494Z,50.17
2017-11-15T08:25:51.105Z,48.97
2017-11-15T08:28:18.724Z,67.73
2017-11-15T08:30:46.348Z,52.30
2017-11-15T08:33:13.995Z,56.30
2017-11-15T08:35:41.643Z,47.20
2017-11-15T08:38:09.252Z,52.47
2017-11-15T08:40:37.186Z,49.30
2017-11-15T08:43:04.816Z,57.17
2017-11-15T08:45:32.423Z,42.07
2017-11-15T08:48:00.085Z,57.03
2017-11-15T08:50:27.716Z,40.23
2017-11-15T08:52:55.299Z,45.27
2017-11-15T08:55:22.929Z,38.07
2017-11-15T08:57:50.553Z,44.87
2017-11-15T09:00:18.488Z,41.73
2017-11-15T09:02:46.100Z,41.60
2017-11-15T09:05:13.718Z,40.43
2017-11-15T09:07:41.391Z,46.20
2017-11-15T09:10:09.004Z,37.43
2017-11-15T09:12:36.646Z,44.80
2017-11-15T09:15:04.267Z,39.23
2017-11-15T09:17:31.882Z,52.03
2017-11-15T09:19:59.511Z,46.93
2017-11-15T09:22:27.098Z,35.63
2017-11-15T09:24:54.735Z,49.13
2017-11-15T09:27:22.350Z,45.40
2017-11-15T09:29:49.949Z,40.20
2017-11-15T09:32:17.602Z,39.67
2017-11-15T09:34:45.192Z,39.63
2017-11-15T09:37:12.829Z,42.43
2017-11-15T09:39:40.435Z,39.97
2017-11-15T09:42:08.036Z,34.73
2017-11-15T09:44:35.662Z,38.83
2017-11-15T09:47:03.256Z,41.83
2017-11-15T09:49:30.889Z,46.90
2017-11-15T09:51:58.485Z,44.10
2017-11-15T09:54:26.097Z,41.63
2017-11-15T09:56:53.731Z,38.20
2017-11-15T09:59:21.342Z,39.57
2017-11-15T10:01:48.979Z,39.47
2017-11-15T10:04:16.558Z,42.33
2017-11-15T10:06:44.169Z,54.60
2017-11-15T10:09:11.793Z,41.10
2017-11-15T10:11:39.402Z,40.37
2017-11-15T10:14:07.076Z,37.03
2017-11-15T10:16:34.683Z,40.50
2017-11-15T10:19:02.297Z,39.80
2017-11-15T10:21:29.927Z,39.30
2017-11-15T10:23:57.517Z,45.53
2017-11-15T10:26:25.138Z,42.47
2017-11-15T10:28:52.739Z,39.83
2017-11-15T10:31:20.346Z,34.93
2017-11-15T10:33:47.963Z,33.53
2017-11-15T10:36:15.572Z,41.57
2017-11-15T10:38:43.201Z,38.17
2017-11-15T10:41:10.795Z,34.20
2017-11-15T10:43:38.388Z,42.20
2017-11-15T10:46:06.020Z,41.53
2017-11-15T10:48:33.621Z,39.17
2017-11-15T10:51:01.648Z,41.83
2017-11-15T10:53:29.244Z,38.13
2017-11-15T10:55:56.837Z,40.07
2017-11-15T10:58:24.474Z,46.07
2017-11-15T11:00:52.072Z,31.90
2017-11-15T11:03:19.714Z,42.40
2017-11-15T11:05:47.375Z,39.87
2017-11-15T11:08:15.030Z,37.80
2017-11-15T11:10:42.615Z,43.53
2017-11-15T11:13:10.308Z,40.13
2017-11-15T11:15:38.224Z,38.27
2017-11-15T11:18:05.869Z,34.63
2017-11-15T11:20:33.531Z,36.63
2017-11-15T11:23:01.129Z,39.37
2017-11-15T11:25:28.729Z,30.87
2017-11-15T11:27:56.353Z,37.20
2017-11-15T11:30:23.974Z,38.00
2017-11-15T11:32:51.634Z,34.97
2017-11-15T11:35:19.233Z,34.00
2017-11-15T11:37:46.855Z,25.33
2017-11-15T11:40:14.465Z,40.67
2017-11-15T11:42:42.082Z,41.30
2017-11-15T11:45:09.715Z,29.67
2017-11-15T11:47:37.322Z,26.20
2017-11-15T11:50:04.918Z,36.33
2017-11-15T11:52:32.555Z,32.50
2017-11-15T11:55:00.626Z,34.17
2017-11-15T11:57:28.245Z,33.00
2017-11-15T11:59:55.950Z,28.13
2017-11-15T12:02:23.589Z,33.73
2017-11-15T12:04:51.192Z,27.50
2017-11-15T12:07:18.851Z,32.77
2017-11-15T12:09:46.470Z,25.57
2017-11-15T12:12:14.094Z,32.77
2017-11-15T12:14:41.723Z,42.97
2017-11-15T12:17:09.386Z,34.03
2017-11-15T12:19:37.036Z,29.53
2017-11-15T12:22:04.721Z,25.50
2017-11-15T12:24:32.324Z,37.13
2017-11-15T12:26:59.966Z,25.63
2017-11-15T12:29:27.851Z,33.77
2017-11-15T12:31:55.880Z,27.00
2017-11-15T12:34:23.485Z,37.57
2017-11-15T12:36:51.416Z,30.70
2017-11-15T12:39:19.024Z,27.30
2017-11-15T12:41:46.629Z,27.90
2017-11-15T12:44:14.270Z,39.07
2017-11-15T12:46:41.889Z,36.90
2017-11-15T12:49:09.845Z,28.40
2017-11-15T12:51:37.521Z,37.33
2017-11-15T12:54:05.150Z,41.93
2017-11-15T12:56:32.800Z,33.40
2017-11-15T12:59:00.420Z,31.73
2017-11-15T13:01:28.044Z,31.30
2017-11-15T13:03:55.683Z,26.73
2017-11-15T13:06:23.293Z,30.07
2017-11-15T13:08:50.950Z,27.53
2017-11-15T13:11:18.553Z,34.03
2017-11-15T13:13:46.151Z,37.00
2017-11-15T13:16:13.812Z,33.40
2017-11-15T13:18:41.689Z,34.13
2017-11-15T13:21:09.357Z,27.43
2017-11-15T13:23:36.964Z,28.53
2017-11-15T13:26:04.571Z,29.77
2017-11-15T13:28:32.239Z,33.60
2017-11-15T13:30:59.830Z,34.47
2017-11-15T13:33:27.471Z,28.63
2017-11-15T13:35:55.432Z,28.10
2017-11-15T13:38:23.027Z,30.87
2017-11-15T13:40:50.657Z,40.03
2017-11-15T13:43:18.272Z,32.03
2017-11-15T13:45:45.940Z,26.73
2017-11-15T13:48:13.531Z,35.33
2017-11-15T13:50:41.413Z,28.40
2017-11-15T13:53:09.483Z,32.83
2017-11-15T13:55:37.092Z,23.70
2017-11-15T13:58:04.712Z,27.57
2017-11-15T14:00:32.297Z,28.73
2017-11-15T14:02:59.973Z,26.23
2017-11-15T14:05:27.577Z,24.63
2017-11-15T14:07:55.159Z,24.47
2017-11-15T14:10:22.782Z,25.17
2017-11-15T14:12:50.386Z,23.70
2017-11-15T14:15:18.031Z,26.00
2017-11-15T14:17:45.755Z,24.90
2017-11-15T14:20:13.391Z,28.50
2017-11-15T14:22:41.039Z,25.20
2017-11-15T14:25:08.652Z,25.37
2017-11-15T14:27:36.558Z,24.03
2017-11-15T14:30:04.205Z,33.13
2017-11-15T14:32:31.796Z,30.10
2017-11-15T14:34:59.442Z,25.97
2017-11-15T14:37:27.309Z,32.93
2017-11-15T14:39:54.946Z,26.90
2017-11-15T14:42:22.556Z,28.47
2017-11-15T14:44:50.149Z,39.27
2017-11-15T14:47:18.066Z,27.37
2017-11-15T14:49:45.898Z,29.30
2017-11-15T14:52:13.541Z,29.80
2017-11-15T14:54:41.184Z,28.70
2017-11-15T14:57:08.779Z,30.07
2017-11-15T14:59:36.438Z,27.10
2017-11-15T15:02:04.047Z,32.63
2017-11-15T15:04:31.740Z,31.00
2017-11-15T15:06:59.371Z,30.17
2017-11-15T15:09:26.970Z,29.03
2017-11-15T15:11:54.572Z,28.10
2017-11-15T15:14:22.174Z,27.10
2017-11-15T15:16:49.825Z,30.53
2017-11-15T15:19:17.414Z,29.93
2017-11-15T15:21:45.003Z,33.70
2017-11-15T15:24:12.915Z,29.60
2017-11-15T15:26:40.513Z,30.23
2017-11-15T15:29:08.166Z,28.07
2017-11-15T15:31:35.752Z,32.47
2017-11-15T15:34:03.350Z,31.73
2017-11-15T15:36:30.971Z,32.77
2017-11-15T15:38:58.596Z,38.87
2017-11-15T15:41:26.217Z,33.10
2017-11-15T15:43:54.125Z,28.43
2017-11-15T15:46:21.737Z,28.33
2017-11-15T15:48:49.356Z,26.50
2017-11-15T15:51:16.985Z,34.70
2017-11-15T15:53:44.605Z,29.90
2017-11-15T15:56:12.184Z,36.80
2017-11-15T15:58:39.773Z,36.90
2017-11-15T16:01:07.409Z,43.63
2017-11-15T16:03:34.989Z,34.03
2017-11-15T16:06:02.983Z,34.20
2017-11-15T16:08:30.572Z,37.30
2017-11-15T16:10:58.967Z,29.10
2017-11-15T16:13:26.599Z,29.97
2017-11-15T16:15:54.181Z,34.10
2017-11-15T16:18:22.122Z,25.80
2017-11-15T16:20:49.982Z,30.77
2017-11-15T16:23:17.574Z,36.57
2017-11-15T16:25:45.511Z,29.97
2017-11-15T16:28:13.104Z,33.93
2017-11-15T16:30:40.742Z,32.83
2017-11-15T16:33:08.334Z,37.63
2017-11-15T16:35:36.166Z,31.40
2017-11-15T16:38:03.790Z,29.43
2017-11-15T16:40:31.386Z,33.07
2017-11-15T16:42:59.027Z,36.10
2017-11-15T16:45:26.720Z,41.87
2017-11-15T16:47:54.386Z,44.73
2017-11-15T16:50:22.018Z,31.77
2017-11-15T16:52:49.632Z,29.57
2017-11-15T16:55:17.282Z,37.70
2017-11-15T16:57:44.897Z,31.70
2017-11-15T17:00:12.537Z,42.70
2017-11-15T17:02:40.234Z,35.47
2017-11-15T17:05:07.859Z,37.17
2017-11-15T17:07:35.479Z,34.60
2017-11-15T17:10:03.071Z,37.47
2017-11-15T17:12:30.772Z,36.23
2017-11-15T17:14:58.674Z,32.10
2017-11-15T17:17:26.311Z,29.47
2017-11-15T17:19:53.925Z,42.00
2017-11-15T17:22:21.537Z,37.30
2017-11-15T17:24:49.167Z,40.77
2017-11-15T17:27:16.798Z,43.23
2017-11-15T17:29:44.383Z,40.17
2017-11-15T17:32:11.978Z,34.30
2017-11-15T17:34:39.644Z,36.97
2017-11-15T17:37:07.244Z,39.70
2017-11-15T17:39:34.852Z,33.93
2017-11-15T17:42:02.433Z,39.20
2017-11-15T17:44:30.098Z,43.53
2017-11-15T17:46:57.731Z,40.83
2017-11-15T17:49:25.385Z,38.07
2017-11-15T17:51:53.075Z,40.63
2017-11-15T17:54:20.705Z,46.13
2017-11-15T17:56:48.335Z,49.40
2017-11-15T17:59:16.205Z,40.20
2017-11-15T18:01:43.866Z,42.03
2017-11-15T18:04:11.493Z,47.47
2017-11-15T18:06:39.144Z,51.67
2017-11-15T18:09:06.800Z,49.13
2017-11-15T18:11:34.393Z,44.03
2017-11-15T18:14:02.028Z,47.77
2017-11-15T18:16:29.624Z,55.93
2017-11-15T18:18:57.292Z,52.13
2017-11-15T18:21:24.894Z,46.43
2017-11-15T18:23:52.523Z,43.37
2017-11-15T18:26:20.207Z,43.67
2017-11-15T18:28:47.970Z,53.10
2017-11-15T18:31:15.597Z,44.40
2017-11-15T18:33:43.230Z,46.17
2017-11-15T18:36:10.957Z,48.57
2017-11-15T18:38:38.570Z,51.37
2017-11-15T18:41:06.226Z,54.60
2017-11-15T18:43:33.878Z,46.77
2017-11-15T18:46:01.600Z,53.70
2017-11-15T18:48:29.240Z,56.97
2017-11-15T18:50:56.848Z,49.20
2017-11-15T18:53:25.093Z,53.53
2017-11-15T18:55:52.756Z,48.80
2017-11-15T18:58:20.364Z,57.60
2017-11-15T19:00:48.098Z,45.80
2017-11-15T19:03:15.751Z,45.97
2017-11-15T19:05:43.366Z,46.20
2017-11-15T19:08:10.996Z,50.73
2017-11-15T19:10:38.618Z,40.97
2017-11-15T19:13:06.338Z,50.77
2017-11-15T19:15:33.982Z,48.43
2017-11-15T19:18:01.602Z,53.03
2017-11-15T19:20:29.221Z,58.00
2017-11-15T19:22:56.979Z,55.40
2017-11-15T19:25:24.760Z,64.77
2017-11-15T19:27:52.448Z,51.33
2017-11-15T19:30:20.069Z,53.50
2017-11-15T19:32:47.701Z,55.23
2017-11-15T19:35:15.347Z,50.30
2017-11-15T19:37:43.362Z,58.30
2017-11-15T19:40:10.970Z,58.17
2017-11-15T19:42:38.777Z,47.37
2017-11-15T19:45:06.495Z,51.27
2017-11-15T19:47:34.088Z,63.90
2017-11-15T19:50:01.967Z,53.33
2017-11-15T19:52:29.582Z,61.57
2017-11-15T19:54:57.266Z,62.60
2017-11-15T19:57:25.008Z,56.37
2017-11-15T19:59:52.682Z,57.00
2017-11-15T20:02:20.395Z,50.87
2017-11-15T20:04:48.095Z,56.53
2017-11-15T20:07:15.775Z,62.40
2017-11-15T20:09:43.432Z,53.47
2017-11-15T20:12:11.069Z,61.07
2017-11-15T20:14:39.015Z,62.80
2017-11-15T20:17:06.624Z,55.03
2017-11-15T20:19:34.229Z,54.10
2017-11-15T20:22:01.850Z,60.30
2017-11-15T20:24:29.476Z,55.13
2017-11-15T20:26:57.133Z,56.00
2017-11-15T20:29:24.875Z,58.60
2017-11-15T20:31:52.519Z,58.23
2017-11-15T20:34:21.643Z,53.00
2017-11-15T20:36:50.093Z,48.77
2017-11-15T20:39:17.796Z,50.37
2017-11-15T20:41:45.412Z,59.03
2017-11-15T20:44:13.023Z,57.03
2017-11-15T20:46:40.658Z,56.83
2017-11-15T20:49:08.710Z,50.93
2017-11-15T20:51:36.657Z,67.30
2017-11-15T20:54:04.313Z,60.20
2017-11-15T20:56:32.293Z,62.70
2017-11-15T20:59:00.043Z,57.73
2017-11-15T21:01:27.693Z,56.50
2017-11-15T21:03:55.364Z,57.53
2017-11-15T21:06:23.310Z,61.97
2017-11-15T21:08:50.972Z,56.90
2017-11-15T21:11:18.597Z,64.90
2017-11-15T21:13:46.275Z,63.63
2017-11-15T21:16:14.214Z,60.53
2017-11-15T21:18:42.087Z,59.40
2017-11-15T21:21:09.741Z,63.10
2017-11-15T21:23:37.380Z,66.33
2017-11-15T21:26:05.062Z,64.27
2017-11-15T21:28:32.661Z,78.40
2017-11-15T21:31:04.785Z,73.47
2017-11-15T21:33:32.401Z,73.43
2017-11-15T21:35:59.993Z,67.37
2017-11-15T21:38:27.951Z,91.80
2017-11-15T21:40:55.811Z,70.87
2017-11-15T21:43:24.409Z,73.97
2017-11-15T21:45:52.013Z,80.83
2017-11-15T21:48:19.630Z,72.50
2017-11-15T21:50:47.265Z,80.37
2017-11-15T21:53:14.873Z,84.80
2017-11-15T21:55:42.513Z,69.17
2017-11-15T21:58:10.098Z,99.00
2017-11-15T22:00:37.741Z,78.00
2017-11-15T22:03:05.406Z,85.93
2017-11-15T22:05:33.013Z,96.30
2017-11-15T22:08:00.675Z,99.33
2017-11-15T22:10:28.306Z,87.33
2017-11-15T22:12:55.903Z,108.97
2017-11-15T22:15:23.528Z,92.87
2017-11-15T22:17:53.970Z,105.27
2017-11-15T22:20:21.619Z,93.70
2017-11-15T22:22:49.257Z,94.03
2017-11-15T22:25:16.850Z,85.47
2017-11-15T22:27:45.452Z,85.70
2017-11-15T22:30:13.190Z,94.50
2017-11-15T22:32:40.848Z,97.20
2017-11-15T22:35:08.455Z,100.47
2017-11-15T22:37:36.063Z,95.70
2017-11-15T22:40:03.707Z,80.27
2017-11-15T22:42:31.307Z,92.10
2017-11-15T22:44:58.952Z,86.17
2017-11-15T22:47:26.614Z,73.03
2017-11-15T22:49:54.211Z,89.90
2017-11-15T22:52:21.853Z,70.93
2017-11-15T22:54:49.461Z,83.03
2017-11-15T22:57:17.090Z,83.43
2017-11-15T22:59:44.704Z,90.60
2017-11-15T23:02:12.313Z,90.30
2017-11-15T23:04:39.941Z,92.07
2017-11-15T23:07:07.808Z,87.40
2017-11-15T23:09:35.471Z,96.67
2017-11-15T23:12:03.074Z,105.10
2017-11-15T23:14:30.699Z,93.80
2017-11-15T23:16:58.376Z,106.03
2017-11-15T23:19:26.334Z,114.07
2017-11-15T23:21:53.970Z,96.63
2017-11-15T23:24:21.575Z,97.53
2017-11-15T23:26:49.175Z,98.00
2017-11-15T23:29:16.794Z,105.37
2017-11-15T23:31:44.382Z,107.50
2017-11-15T23:34:12.015Z,99.40
2017-11-15T23:36:39.629Z,95.53
2017-11-15T23:39:07.233Z,119.07
2017-11-15T23:41:34.858Z,98.63
2017-11-15T23:44:02.482Z,111.83
2017-11-15T23:46:30.421Z,106.40
2017-11-15T23:48:58.007Z,101.43
2017-11-15T23:51:25.862Z,126.40
2017-11-15T23:53:53.489Z,101.23
2017-11-15T23:56:21.079Z,114.97
2017-11-15T23:58:48.710Z,109.40
